Time;durP1;ratioP1;P1;durP2;ratioP2;P2;SDS_P1;SDS_P2;PMS_P1;PMS_P2;Temp;Humidity;BMP_temperature;BMP_pressure;BME280_temperature;BME280_humidity;BME280_pressure;Samples;Min_cycle;Max_cycle;Signal;HPM_P1;HPM_P2
2022/10/05 00:00:48;;;;;;;32.95;30.85;;;;;;;16.84;61.86;101669.03;5013861;28;20042;-77
2022/10/05 00:03:13;;;;;;;31.67;29.77;;;;;;;16.84;61.45;101665.47;5009153;28;20386;-76
2022/10/05 00:05:39;;;;;;;34.08;31.58;;;;;;;16.84;61.68;101666.28;5012572;28;20038;-76
2022/10/05 00:08:14;;;;;;;33.92;31.83;;;;;;;16.85;61.98;101662.47;5006157;28;20037;-76
2022/10/05 00:10:41;;;;;;;33.70;31.27;;;;;;;16.84;61.87;101658.13;4992998;28;20034;-75
2022/10/05 00:13:21;;;;;;;33.33;31.33;;;;;;;16.83;61.42;101653.75;5004116;28;20088;-76
2022/10/05 00:15:49;;;;;;;34.40;32.13;;;;;;;16.83;61.39;101653.75;5005315;28;20026;-76
2022/10/05 00:18:17;;;;;;;34.42;32.10;;;;;;;16.83;61.84;101648.28;5001172;28;20030;-76
2022/10/05 00:20:43;;;;;;;32.63;30.60;;;;;;;16.84;61.51;101651.84;5013377;28;20557;-76
2022/10/05 00:23:16;;;;;;;34.05;31.92;;;;;;;16.84;61.65;101651.84;5011833;28;20034;-75
2022/10/05 00:25:45;;;;;;;34.88;32.65;;;;;;;16.83;61.63;101648.28;5009320;28;20041;-76
2022/10/05 00:28:39;;;;;;;33.42;31.10;;;;;;;16.84;61.85;101646.38;5003560;28;20038;-76
2022/10/05 00:31:13;;;;;;;31.70;29.98;;;;;;;16.82;61.73;101643.91;4998642;28;20066;-76
2022/10/05 00:33:38;;;;;;;32.15;30.02;;;;;;;16.82;61.33;101641.19;4993982;28;20054;-77
2022/10/05 00:36:05;;;;;;;31.15;29.15;;;;;;;16.83;61.78;101636.53;5008112;28;21475;-76
2022/10/05 00:38:31;;;;;;;31.38;29.50;;;;;;;16.82;61.64;101633.00;4996001;28;20065;-76
2022/10/05 00:41:17;;;;;;;33.10;31.10;;;;;;;16.82;61.65;101646.63;4992468;28;20065;-76
2022/10/05 00:44:07;;;;;;;33.55;31.38;;;;;;;16.83;61.84;101636.53;5005645;28;20032;-75
2022/10/05 00:46:52;;;;;;;31.98;30.02;;;;;;;16.82;61.81;101634.91;5012393;28;20040;-76
2022/10/05 00:49:36;;;;;;;33.38;30.77;;;;;;;16.80;61.76;101629.69;4994431;28;20105;-76
2022/10/05 00:52:22;;;;;;;34.42;32.22;;;;;;;16.80;61.59;101626.97;4993625;28;20049;-75
2022/10/05 00:55:20;;;;;;;33.10;31.02;;;;;;;16.79;62.04;101630.78;5006806;28;20363;-76
2022/10/05 00:57:53;;;;;;;34.60;32.40;;;;;;;16.79;61.60;101636.25;5009839;28;20045;-76
2022/10/05 01:00:24;;;;;;;31.42;29.55;;;;;;;16.79;61.77;101628.06;5011674;28;20030;-76
2022/10/05 01:02:55;;;;;;;35.72;33.33;;;;;;;16.78;62.04;101625.59;5012185;28;20038;-76
2022/10/05 01:05:40;;;;;;;32.45;30.10;;;;;;;16.79;61.63;101617.16;5013931;28;20122;-76
2022/10/05 01:08:31;;;;;;;32.22;30.33;;;;;;;16.79;61.96;101616.34;5013487;28;20506;-76
2022/10/05 01:11:13;;;;;;;32.45;30.40;;;;;;;16.79;61.92;101610.88;5011507;28;20042;-76
2022/10/05 01:14:04;;;;;;;31.50;29.35;;;;;;;16.77;61.71;101610.28;5000007;28;20065;-76
2022/10/05 01:16:37;;;;;;;34.25;31.50;;;;;;;16.78;61.68;101603.75;5009474;28;20042;-76
2022/10/05 01:19:24;;;;;;;33.38;31.50;;;;;;;16.78;61.58;101598.31;4993688;28;20122;-76
2022/10/05 01:22:13;;;;;;;33.25;31.10;;;;;;;16.78;61.88;101603.75;5005118;28;20201;-76
2022/10/05 01:25:06;;;;;;;30.58;28.63;;;;;;;16.78;61.88;101601.03;5000636;28;20431;-76
2022/10/05 01:28:02;;;;;;;33.78;31.20;;;;;;;16.77;61.68;101605.63;4994559;28;20065;-76
2022/10/05 01:30:41;;;;;;;29.98;28.23;;;;;;;16.77;61.89;101607.56;4992487;28;20085;-76
2022/10/05 01:33:17;;;;;;;31.45;29.45;;;;;;;16.76;61.37;101601.28;4998458;28;20061;-76
2022/10/05 01:36:08;;;;;;;32.78;30.58;;;;;;;16.77;61.78;101608.38;5005343;28;20050;-76
2022/10/05 01:38:42;;;;;;;32.65;30.45;;;;;;;16.77;61.59;101602.91;5012588;28;20034;-76
2022/10/05 01:41:26;;;;;;;33.45;30.95;;;;;;;16.77;61.53;101593.91;5008591;28;20034;-76
2022/10/05 01:44:05;;;;;;;34.85;32.58;;;;;;;16.76;61.65;101593.09;5000320;28;20036;-76
2022/10/05 01:46:53;;;;;;;32.15;30.27;;;;;;;16.76;61.94;101593.09;5012459;28;20029;-76
2022/10/05 01:49:32;;;;;;;32.10;30.00;;;;;;;16.76;61.86;101581.38;5010760;28;20030;-75
2022/10/05 01:51:57;;;;;;;;;;;;;;;16.75;61.77;101571.53;4995405;28;20113;-76
2022/10/05 01:54:50;;;;;;;31.52;29.42;;;;;;;16.74;61.75;101573.44;5006240;28;19993;-76
2022/10/05 01:57:36;;;;;;;32.13;29.85;;;;;;;16.72;61.83;101569.31;4998885;28;20065;-76
2022/10/05 02:00:10;;;;;;;32.25;29.95;;;;;;;16.73;61.55;101562.78;5004372;28;20101;-76
2022/10/05 02:02:44;;;;;;;33.92;31.80;;;;;;;16.73;61.97;101554.59;5010703;28;20129;-75
2022/10/05 02:05:19;;;;;;;30.83;28.58;;;;;;;16.73;61.62;101554.59;5000167;28;20034;-77
2022/10/05 02:07:59;;;;;;;33.33;31.02;;;;;;;16.74;61.96;101554.34;4993755;28;20031;-76
2022/10/05 02:10:31;;;;;;;33.13;31.10;;;;;;;16.73;61.93;101555.44;4992862;28;20654;-76
2022/10/05 02:13:01;;;;;;;33.50;30.42;;;;;;;16.73;61.69;101554.59;4992246;28;20034;-76
2022/10/05 02:15:32;;;;;;;33.75;31.45;;;;;;;16.71;61.68;101557.59;4992600;28;20031;-76
2022/10/05 02:18:06;;;;;;;34.25;31.88;;;;;;;16.72;61.65;101556.50;5007563;28;20044;-77
2022/10/05 02:20:34;;;;;;;34.22;32.03;;;;;;;16.71;61.51;101552.16;4994453;28;20037;-76
2022/10/05 02:23:06;;;;;;;33.58;31.08;;;;;;;16.72;61.55;101556.50;5003479;28;20112;-76
2022/10/05 02:25:38;;;;;;;31.38;29.38;;;;;;;16.72;61.81;101548.31;5010081;28;20042;-76
2022/10/05 02:28:25;;;;;;;32.53;30.23;;;;;;;16.71;61.50;101540.41;5006893;28;20026;-76
2022/10/05 02:31:00;;;;;;;32.13;30.13;;;;;;;16.71;61.95;101526.78;4997321;28;20033;-76
2022/10/05 02:33:28;;;;;;;33.78;31.38;;;;;;;16.72;61.92;101525.69;5010852;28;20026;-76
2022/10/05 02:36:00;;;;;;;32.38;30.15;;;;;;;16.71;61.54;101522.13;5009716;28;20605;-76
2022/10/05 02:38:54;;;;;;;34.42;32.10;;;;;;;16.71;61.66;101521.31;5007077;28;20632;-76
2022/10/05 02:41:34;;;;;;;32.13;30.08;;;;;;;16.71;61.74;101524.88;5002303;28;20034;-76
2022/10/05 02:44:23;;;;;;;34.60;32.00;;;;;;;16.70;61.61;101515.03;5010894;28;20026;-76
2022/10/05 02:46:52;;;;;;;34.42;32.22;;;;;;;16.70;61.84;101525.13;5011150;28;20030;-77
2022/10/05 02:49:44;;;;;;;32.22;30.15;;;;;;;16.70;61.76;101508.75;5002659;28;20439;-76
2022/10/05 02:52:12;;;;;;;33.25;30.80;;;;;;;16.69;61.76;101505.22;5007457;28;20030;-77
2022/10/05 02:54:42;;;;;;;33.38;31.08;;;;;;;16.69;62.08;101507.13;4991151;28;20121;-76
2022/10/05 02:57:07;;;;;;;34.75;32.17;;;;;;;16.69;61.64;101494.28;4990540;28;20458;-76
2022/10/05 02:59:54;;;;;;;31.17;29.27;;;;;;;16.70;62.13;101503.28;5008583;28;20117;-76
2022/10/05 03:02:30;;;;;;;32.40;30.20;;;;;;;16.68;61.70;101503.53;5001124;28;20048;-76
2022/10/05 03:05:09;;;;;;;33.58;31.15;;;;;;;16.69;61.84;101501.66;5011062;28;20048;-77
2022/10/05 03:07:45;;;;;;;30.63;28.75;;;;;;;16.68;61.66;101492.63;5002248;28;20030;-76
2022/10/05 03:10:41;;;;;;;32.92;30.70;;;;;;;16.68;61.42;101489.91;4998190;28;20034;-76
2022/10/05 03:13:38;;;;;;;33.13;30.80;;;;;;;16.67;61.85;101493.72;5009712;28;20037;-77
2022/10/05 03:16:24;;;;;;;31.85;29.77;;;;;;;16.66;62.05;101482.00;5005139;28;20057;-76
2022/10/05 03:19:12;;;;;;;33.60;30.23;;;;;;;16.65;62.00;101477.63;4993383;28;20041;-76
2022/10/05 03:22:11;;;;;;;31.70;29.20;;;;;;;16.66;61.92;101483.91;5011383;28;20482;-76
2022/10/05 03:24:54;;;;;;;33.90;31.83;;;;;;;16.66;61.68;101492.91;5010531;28;20030;-76
2022/10/05 03:27:45;;;;;;;31.60;29.80;;;;;;;16.66;61.67;101483.91;5008756;28;20030;-77
2022/10/05 03:30:24;;;;;;;35.70;33.00;;;;;;;16.66;61.60;101489.38;5008936;28;20049;-76
2022/10/05 03:33:11;;;;;;;32.97;30.98;;;;;;;16.65;61.65;101488.53;4998352;28;20030;-76
2022/10/05 03:36:01;;;;;;;33.35;31.13;;;;;;;16.65;61.91;101483.06;4991000;28;20038;-76
2022/10/05 03:38:51;;;;;;;32.13;29.90;;;;;;;16.64;61.89;101483.34;4991907;28;20475;-76
2022/10/05 03:41:44;;;;;;;30.40;28.50;;;;;;;16.64;61.81;101486.09;4991201;28;20368;-76
2022/10/05 03:44:15;;;;;;;32.80;30.60;;;;;;;16.64;61.52;101478.72;4994968;28;20062;-77
2022/10/05 03:47:04;;;;;;;32.53;30.20;;;;;;;16.64;61.74;101478.72;4995248;28;20100;-76
2022/10/05 03:49:47;;;;;;;33.10;31.13;;;;;;;16.63;61.98;101488.00;5011952;28;20033;-76
2022/10/05 03:52:30;;;;;;;32.13;30.13;;;;;;;16.63;61.82;101478.97;4993645;28;20910;-76
2022/10/05 03:55:20;;;;;;;30.42;28.60;;;;;;;16.63;61.73;101498.06;5004731;28;20038;-78
2022/10/05 03:57:49;;;;;;;31.42;29.58;;;;;;;16.62;61.59;101494.53;5014580;28;20026;-77
2022/10/05 04:00:24;;;;;;;;;;;;;;;16.62;61.74;101497.25;5014149;28;20033;-77
2022/10/05 04:03:14;;;;;;;30.70;28.90;;;;;;;16.62;61.29;101490.97;5014278;28;19910;-76
2022/10/05 04:05:52;;;;;;;32.17;30.33;;;;;;;16.60;61.55;101487.69;5008574;28;20119;-77
2022/10/05 04:08:35;;;;;;;30.58;28.67;;;;;;;16.61;61.56;101481.16;4993440;28;20088;-76
2022/10/05 04:11:09;;;;;;;32.53;30.45;;;;;;;16.60;61.97;101477.59;4994581;28;20040;-76
2022/10/05 04:14:13;;;;;;;32.35;30.05;;;;;;;16.59;61.85;101481.41;5009632;28;20120;-77
2022/10/05 04:16:50;;;;;;;30.58;28.25;;;;;;;16.59;61.58;101489.59;4984752;28;20034;-76
2022/10/05 04:19:24;;;;;;;32.03;29.83;;;;;;;16.59;61.92;101475.16;4994222;28;20034;-76
2022/10/05 04:22:06;;;;;;;30.75;29.05;;;;;;;16.58;61.84;101476.22;5008210;28;20048;-76
2022/10/05 04:24:48;;;;;;;31.27;29.27;;;;;;;16.58;62.02;101478.94;5013307;28;20064;-76
2022/10/05 04:27:18;;;;;;;32.88;30.55;;;;;;;16.58;61.86;101473.50;4994156;28;20475;-75
2022/10/05 04:30:06;;;;;;;29.52;27.63;;;;;;;16.59;61.76;101459.59;4996789;28;20168;-75
2022/10/05 04:32:41;;;;;;;29.90;28.10;;;;;;;16.58;61.64;101470.75;5004962;28;20084;-76
2022/10/05 04:35:20;;;;;;;30.92;29.08;;;;;;;16.58;61.75;101465.31;4993443;28;20125;-75
2022/10/05 04:38:04;;;;;;;31.52;29.73;;;;;;;16.57;61.75;101463.69;4994226;28;20451;-75
2022/10/05 04:40:38;;;;;;;30.95;29.00;;;;;;;16.58;61.89;101468.88;4996258;28;20030;-75
2022/10/05 04:43:12;;;;;;;31.58;29.48;;;;;;;16.57;62.00;101464.50;4993655;28;20026;-75
2022/10/05 04:45:47;;;;;;;30.80;29.00;;;;;;;16.57;61.92;101464.50;5005701;28;20065;-75
2022/10/05 04:48:53;;;;;;;31.67;29.45;;;;;;;16.57;61.84;101456.31;4998059;28;20034;-75
2022/10/05 04:51:27;;;;;;;31.02;29.05;;;;;;;16.56;61.85;101462.88;4993543;28;20137;-75
2022/10/05 04:54:02;;;;;;;31.10;29.08;;;;;;;16.56;61.80;101453.88;4992361;28;20380;-75
2022/10/05 04:57:06;;;;;;;30.00;28.10;;;;;;;16.56;61.86;101453.88;4994567;28;20401;-75
2022/10/05 04:59:42;;;;;;;30.98;29.05;;;;;;;16.55;61.70;101453.03;4971894;28;20030;-75
2022/10/05 05:02:27;;;;;;;30.92;29.13;;;;;;;16.55;61.77;101455.75;4971610;28;20522;-75
2022/10/05 05:05:20;;;;;;;30.75;28.98;;;;;;;16.55;61.54;101450.28;4986481;28;20054;-76
2022/10/05 05:08:18;;;;;;;30.50;28.52;;;;;;;16.55;61.75;101449.47;4994174;28;20029;-76
2022/10/05 05:11:03;;;;;;;29.17;27.30;;;;;;;16.54;61.94;101448.66;5000808;28;20045;-76
2022/10/05 05:13:53;;;;;;;30.58;28.88;;;;;;;16.54;61.71;101447.84;5008482;28;20065;-76
2022/10/05 05:16:34;;;;;;;28.95;27.25;;;;;;;16.53;61.46;101446.19;4992076;28;20044;-76
2022/10/05 05:19:41;;;;;;;28.67;26.88;;;;;;;16.53;61.56;101440.75;5006842;28;20034;-76
2022/10/05 05:22:24;;;;;;;29.75;27.90;;;;;;;16.52;61.85;101434.47;4983648;28;20129;-76
2022/10/05 05:25:23;;;;;;;29.50;27.73;;;;;;;16.52;61.91;101441.84;4990790;28;20037;-76
2022/10/05 05:27:56;;;;;;;29.10;27.50;;;;;;;16.51;61.66;101442.94;4987792;28;20045;-76
2022/10/05 05:30:40;;;;;;;31.75;29.77;;;;;;;16.50;61.66;101439.38;4991799;28;20089;-76
2022/10/05 05:33:24;;;;;;;30.25;28.25;;;;;;;16.51;61.93;101437.47;4995270;28;20034;-77
2022/10/05 05:36:21;;;;;;;30.77;28.65;;;;;;;16.50;61.60;101430.38;5012787;28;20112;-77
2022/10/05 05:39:11;;;;;;;31.60;29.52;;;;;;;16.50;61.75;101430.38;5011651;28;20040;-77
2022/10/05 05:41:45;;;;;;;30.63;28.90;;;;;;;16.49;61.64;101428.75;4994129;28;20034;-74
2022/10/05 05:44:26;;;;;;;31.45;29.45;;;;;;;16.48;61.66;101424.34;5005026;28;20725;-76
2022/10/05 05:46:58;;;;;;;31.40;29.42;;;;;;;16.49;61.78;101426.00;5012203;28;20052;-75
2022/10/05 05:49:30;;;;;;;31.90;29.80;;;;;;;16.49;61.80;101417.84;5010136;28;20468;-76
2022/10/05 05:52:03;;;;;;;28.70;26.92;;;;;;;16.49;61.73;101421.38;5007931;28;20479;-76
2022/10/05 05:55:17;;;;;;;30.17;28.45;;;;;;;16.51;61.69;101426.56;5004641;28;20048;-76
2022/10/05 05:57:53;;;;;;;28.45;26.70;;;;;;;16.50;61.63;101419.47;5002294;28;20041;-76
2022/10/05 06:00:36;;;;;;;30.15;28.35;;;;;;;16.49;61.72;101426.81;4997691;28;20034;-76
2022/10/05 06:03:08;;;;;;;29.45;27.75;;;;;;;16.49;61.81;101420.56;4992826;28;20045;-76
2022/10/05 06:05:51;;;;;;;27.90;26.40;;;;;;;16.48;61.93;101419.75;4991347;28;20546;-76
2022/10/05 06:08:29;;;;;;;31.98;29.58;;;;;;;16.49;61.60;101417.84;4991130;28;20478;-76
2022/10/05 06:11:05;;;;;;;32.63;30.60;;;;;;;16.49;61.70;101417.84;4991670;28;20057;-76
2022/10/05 06:13:39;;;;;;;32.75;30.95;;;;;;;16.49;61.76;101420.56;5000941;28;20095;-76
2022/10/05 06:16:34;;;;;;;30.08;28.38;;;;;;;16.49;61.57;101423.28;5002968;28;20042;-76
2022/10/05 06:19:12;;;;;;;29.75;28.05;;;;;;;16.49;61.72;101423.28;5006915;28;20029;-76
2022/10/05 06:21:47;;;;;;;32.20;30.00;;;;;;;16.48;61.65;101417.03;4995320;28;20042;-75
2022/10/05 06:24:27;;;;;;;31.67;29.83;;;;;;;16.48;61.88;101417.03;5009614;28;20033;-76
2022/10/05 06:27:09;;;;;;;30.58;27.88;;;;;;;16.47;61.37;101420.81;5004296;28;20038;-75
2022/10/05 06:29:59;;;;;;;30.65;28.40;;;;;;;16.48;61.44;101421.63;4997057;28;20418;-76
2022/10/05 06:32:43;;;;;;;31.38;29.52;;;;;;;16.46;61.61;101421.91;5005026;28;20034;-77
2022/10/05 06:35:32;;;;;;;29.45;27.65;;;;;;;16.47;61.32;101422.72;5004606;28;20037;-77
2022/10/05 06:38:19;;;;;;;29.52;27.88;;;;;;;16.47;61.80;101433.63;5005764;28;20045;-77
2022/10/05 06:41:17;;;;;;;31.98;30.08;;;;;;;16.46;61.61;101426.56;5007792;28;20421;-76
2022/10/05 06:43:58;;;;;;;30.05;27.60;;;;;;;16.45;61.64;101428.44;5004608;28;20025;-77
2022/10/05 06:46:29;;;;;;;30.73;28.88;;;;;;;16.45;61.61;101425.72;5007338;28;20045;-77
2022/10/05 06:49:14;;;;;;;28.42;26.48;;;;;;;16.45;61.42;101428.44;5006140;28;20113;-76
2022/10/05 06:52:00;;;;;;;29.02;27.35;;;;;;;16.45;61.66;101433.88;4983222;28;20077;-77
2022/10/05 06:54:40;;;;;;;30.88;29.10;;;;;;;16.44;61.78;101438.53;5003785;28;20038;-77
2022/10/05 06:57:26;;;;;;;28.88;27.17;;;;;;;16.43;61.53;101428.72;5004559;28;20037;-77
2022/10/05 07:00:30;;;;;;;29.10;27.60;;;;;;;16.42;61.64;101429.78;5003670;28;20022;-76
2022/10/05 07:02:59;;;;;;;30.38;28.40;;;;;;;16.39;61.65;101430.31;5003475;28;20034;-76
2022/10/05 07:05:27;;;;;;;31.88;29.77;;;;;;;16.41;61.93;101430.06;5002570;28;20034;-76
2022/10/05 07:07:57;;;;;;;30.83;28.92;;;;;;;16.42;61.78;101435.25;5007163;28;20068;-77
2022/10/05 07:10:35;;;;;;;31.67;29.67;;;;;;;16.40;61.63;101429.25;5003361;28;20117;-76
2022/10/05 07:13:28;;;;;;;30.63;28.85;;;;;;;16.40;61.36;101423.81;5006395;28;20513;-76
2022/10/05 07:16:38;;;;;;;29.23;27.63;;;;;;;16.41;61.73;101432.78;5003187;28;20117;-76
2022/10/05 07:19:13;;;;;;;29.30;27.60;;;;;;;16.40;61.64;101429.25;4967755;28;20038;-77
2022/10/05 07:22:17;;;;;;;29.70;27.95;;;;;;;16.40;61.42;101431.97;5005191;28;20057;-77
2022/10/05 07:25:00;;;;;;;29.05;27.35;;;;;;;16.39;61.58;101421.31;5011593;28;20129;-77
2022/10/05 07:27:33;;;;;;;30.55;28.75;;;;;;;16.39;61.74;101433.03;5011607;28;20593;-76
2022/10/05 07:30:11;;;;;;;30.02;28.15;;;;;;;16.39;61.82;101427.59;5010626;28;20052;-77
2022/10/05 07:32:58;;;;;;;30.38;28.40;;;;;;;16.41;61.64;101439.06;5010014;28;20038;-77
2022/10/05 07:38:44;;;;;;;30.45;28.42;;;;;;;16.41;61.56;101433.59;5005481;28;20504;-76
2022/10/05 07:41:19;;;;;;;30.13;28.52;;;;;;;16.40;61.82;101426.53;5010414;28;20030;-75
2022/10/05 07:43:53;;;;;;;31.75;29.67;;;;;;;16.41;61.45;101433.59;5010950;28;20080;-75
2022/10/05 07:46:37;;;;;;;30.77;28.98;;;;;;;16.42;61.67;101434.41;5000877;28;20061;-77
2022/10/05 07:49:06;;;;;;;29.55;27.75;;;;;;;16.41;61.42;101430.06;5009939;28;20077;-78
2022/10/05 07:51:40;;;;;;;30.38;28.65;;;;;;;16.42;61.84;101432.50;5009852;28;20030;-76
2022/10/05 07:54:17;;;;;;;29.10;27.45;;;;;;;16.43;61.78;101433.34;5013072;28;20372;-76
2022/10/05 07:57:11;;;;;;;30.48;28.80;;;;;;;16.43;61.58;101431.44;5010674;28;20034;-76
2022/10/05 07:59:49;;;;;;;31.15;29.27;;;;;;;16.44;61.41;101440.44;5008707;28;20052;-77
2022/10/05 08:02:33;;;;;;;29.70;28.20;;;;;;;16.46;61.62;101437.47;5011581;28;20038;-76
2022/10/05 08:04:58;;;;;;;29.75;28.05;;;;;;;16.46;61.64;101434.72;5004202;28;20471;-77
2022/10/05 08:07:24;;;;;;;31.45;29.45;;;;;;;16.47;61.29;101430.91;5009361;28;20076;-76
2022/10/05 08:10:27;;;;;;;30.40;28.70;;;;;;;16.46;62.00;101430.09;5010432;28;20033;-77
2022/10/05 08:13:14;;;;;;;31.85;29.77;;;;;;;16.48;61.71;101433.38;5004587;28;20124;-74
2022/10/05 08:15:43;;;;;;;30.73;29.00;;;;;;;16.48;61.80;101427.94;5005592;28;20112;-76
2022/10/05 08:18:14;;;;;;;31.02;29.23;;;;;;;16.50;61.86;101422.19;5011163;28;20030;-76
2022/10/05 08:20:48;;;;;;;30.05;28.45;;;;;;;16.50;61.62;101424.91;5005704;28;20041;-76
2022/10/05 08:23:24;;;;;;;31.65;29.40;;;;;;;16.50;61.74;101427.63;5010701;28;20048;-76
2022/10/05 08:26:05;;;;;;;30.30;28.52;;;;;;;16.51;61.74;101426.56;5008186;28;20030;-76
2022/10/05 08:29:01;;;;;;;31.08;29.25;;;;;;;16.53;61.89;101417.03;5005071;28;20159;-76
2022/10/05 08:31:40;;;;;;;31.65;29.73;;;;;;;16.52;61.85;101418.09;5005195;28;20049;-76
2022/10/05 08:34:29;;;;;;;31.85;29.95;;;;;;;16.53;61.50;101417.03;5009688;28;20052;-76
2022/10/05 08:36:59;;;;;;;30.02;28.05;;;;;;;16.54;61.81;101415.13;5006777;28;20462;-76
2022/10/05 08:39:30;;;;;;;30.85;28.95;;;;;;;16.54;61.78;101409.66;5004627;28;20393;-75
2022/10/05 08:41:58;;;;;;;29.38;27.77;;;;;;;16.55;62.01;101409.38;5006534;28;20030;-74
2022/10/05 08:44:45;;;;;;;28.23;26.67;;;;;;;16.57;61.85;101407.22;5009085;28;20071;-74
2022/10/05 08:47:44;;;;;;;29.73;28.17;;;;;;;16.57;61.85;101409.94;5006064;28;20068;-75
2022/10/05 08:50:41;;;;;;;29.08;27.42;;;;;;;16.57;61.77;101409.94;5008672;28;20120;-75
2022/10/05 08:53:18;;;;;;;30.65;28.95;;;;;;;16.57;61.73;101406.41;4999174;28;20076;-74
2022/10/05 08:56:05;;;;;;;31.75;29.75;;;;;;;16.59;61.92;101402.31;5007162;28;20029;-74
2022/10/05 08:58:56;;;;;;;30.38;28.58;;;;;;;16.60;61.94;101397.69;5006261;28;20030;-74
2022/10/05 09:01:48;;;;;;;30.90;28.15;;;;;;;16.60;62.13;101395.78;5004481;28;20096;-74
2022/10/05 09:04:38;;;;;;;30.17;28.48;;;;;;;16.61;61.64;101402.06;5008211;28;20116;-74
2022/10/05 09:07:42;;;;;;;30.67;29.05;;;;;;;16.61;61.87;101391.97;5001383;28;20045;-74
2022/10/05 09:10:41;;;;;;;29.10;27.35;;;;;;;16.62;62.28;101384.59;4999538;28;20062;-74
2022/10/05 09:13:12;;;;;;;29.65;27.75;;;;;;;16.62;62.02;101393.59;5004903;28;20386;-74
2022/10/05 09:15:53;;;;;;;30.25;28.60;;;;;;;16.65;61.89;101386.78;5006908;28;20092;-74
2022/10/05 09:18:55;;;;;;;28.23;26.73;;;;;;;16.65;61.85;101387.59;5007685;28;20463;-74
2022/10/05 09:21:48;;;;;;;29.83;27.02;;;;;;;16.66;61.73;101383.00;5002140;28;20033;-76
2022/10/05 09:24:14;;;;;;;29.13;27.52;;;;;;;16.67;61.85;101390.88;5007217;28;20034;-74
2022/10/05 09:26:39;;;;;;;30.60;28.65;;;;;;;16.68;62.22;101380.78;5004747;28;20036;-74
2022/10/05 09:29:16;;;;;;;30.05;28.35;;;;;;;16.70;61.96;101378.63;5006615;28;20054;-75
2022/10/05 09:31:56;;;;;;;29.75;28.13;;;;;;;16.72;62.17;101387.38;4996974;28;20240;-74
2022/10/05 09:34:34;;;;;;;29.67;28.10;;;;;;;16.74;62.16;101374.28;5002897;28;20386;-76
2022/10/05 09:37:21;;;;;;;30.73;28.87;;;;;;;16.76;62.00;101369.38;5007543;28;20037;-74
2022/10/05 09:40:01;;;;;;;29.40;27.80;;;;;;;16.77;62.17;101368.28;5004656;28;20037;-76
2022/10/05 09:42:54;;;;;;;33.00;31.05;;;;;;;16.79;62.51;101363.41;5002605;28;20104;-75
2022/10/05 09:45:47;;;;;;;30.00;28.13;;;;;;;16.81;62.52;101368.63;5004339;28;20037;-75
2022/10/05 09:48:37;;;;;;;30.90;29.20;;;;;;;16.83;62.27;101361.78;5001756;28;20035;-75
2022/10/05 09:51:22;;;;;;;28.83;27.33;;;;;;;16.84;62.40;101359.88;5000533;28;20996;-75
2022/10/05 09:54:07;;;;;;;32.00;30.20;;;;;;;16.86;62.07;101357.72;4997588;28;20034;-75
2022/10/05 09:57:09;;;;;;;29.52;27.90;;;;;;;16.88;62.30;101358.22;4999248;28;20037;-75
2022/10/05 09:59:53;;;;;;;31.38;29.25;;;;;;;16.91;62.49;101354.16;5006782;28;20063;-75
2022/10/05 10:02:29;;;;;;;30.50;28.70;;;;;;;16.91;62.39;101344.06;5003572;28;20055;-75
2022/10/05 10:05:22;;;;;;;32.20;30.35;;;;;;;16.95;62.48;101341.63;5004403;28;20045;-75
2022/10/05 10:08:15;;;;;;;32.80;30.80;;;;;;;16.97;62.33;101344.91;5004720;28;20034;-75
2022/10/05 10:11:05;;;;;;;31.55;29.85;;;;;;;16.97;62.31;101340.25;4998867;28;20037;-76
2022/10/05 10:13:52;;;;;;;32.92;31.13;;;;;;;17.00;62.41;101339.69;5003576;28;20041;-72
2022/10/05 10:16:36;;;;;;;29.90;28.38;;;;;;;17.02;62.49;101333.97;5005864;28;20470;-75
2022/10/05 10:19:45;;;;;;;32.92;30.92;;;;;;;17.05;62.40;101336.16;5004502;28;20121;-76
2022/10/05 10:22:45;;;;;;;30.98;29.17;;;;;;;17.08;62.37;101335.63;4996787;28;20041;-73
2022/10/05 10:25:38;;;;;;;32.10;30.15;;;;;;;17.09;62.69;101334.53;5002145;28;20041;-72
2022/10/05 10:28:34;;;;;;;33.08;31.10;;;;;;;17.11;62.52;101326.91;5003122;28;20073;-74
2022/10/05 10:31:05;;;;;;;30.40;28.60;;;;;;;17.14;62.73;101322.81;4995641;28;20048;-73
2022/10/05 10:33:43;;;;;;;31.05;29.30;;;;;;;17.15;62.42;101327.16;4998686;28;20038;-72
2022/10/05 10:36:21;;;;;;;30.40;28.70;;;;;;;17.19;62.83;101331.00;5004195;28;20101;-73
2022/10/05 10:39:01;;;;;;;31.08;29.33;;;;;;;17.20;62.76;101318.97;4998938;28;20147;-74
2022/10/05 10:41:49;;;;;;;31.17;29.50;;;;;;;17.22;62.47;101309.41;4999040;28;20030;-75
2022/10/05 10:44:51;;;;;;;29.42;27.63;;;;;;;17.25;62.44;101308.88;5006288;28;20038;-72
2022/10/05 10:47:39;;;;;;;31.83;29.48;;;;;;;17.28;62.39;101316.50;5004058;28;20536;-72
2022/10/05 10:50:46;;;;;;;30.23;28.70;;;;;;;17.30;62.84;101300.66;5002556;28;20042;-73
2022/10/05 10:53:52;;;;;;;32.03;30.33;;;;;;;17.33;62.62;101299.31;4982394;28;20053;-73
2022/10/05 10:56:28;;;;;;;31.38;29.75;;;;;;;17.35;62.63;101305.31;5000532;28;20026;-75
2022/10/05 10:59:22;;;;;;;32.90;31.10;;;;;;;17.38;62.83;101306.69;5000813;28;20038;-73
2022/10/05 11:02:02;;;;;;;31.83;30.08;;;;;;;17.41;62.35;101303.41;5000902;28;20438;-72
2022/10/05 11:04:41;;;;;;;31.75;30.00;;;;;;;17.41;62.58;101298.78;4999088;28;20029;-74
2022/10/05 11:07:24;;;;;;;31.02;29.42;;;;;;;17.44;62.38;101305.59;5002684;28;20030;-75
2022/10/05 11:10:02;;;;;;;32.75;31.05;;;;;;;17.46;62.46;101303.38;4996837;28;20172;-74
2022/10/05 11:12:48;;;;;;;30.38;28.67;;;;;;;17.49;62.43;101302.84;5000870;28;20042;-74
2022/10/05 11:15:53;;;;;;;32.33;30.42;;;;;;;17.53;62.58;101298.47;5000745;28;20069;-74
2022/10/05 11:18:30;;;;;;;31.23;29.52;;;;;;;17.57;62.38;101287.81;5005207;28;20042;-74
2022/10/05 11:21:30;;;;;;;33.22;31.42;;;;;;;17.59;62.48;101302.84;5004488;28;20036;-75
2022/10/05 11:24:30;;;;;;;33.45;31.55;;;;;;;17.60;62.75;101282.63;4998174;28;20044;-72
2022/10/05 11:27:25;;;;;;;33.05;31.20;;;;;;;17.63;62.65;101279.31;5000880;28;20046;-76
2022/10/05 11:30:20;;;;;;;32.85;30.83;;;;;;;17.65;62.30;101271.66;5001196;28;20050;-71
2022/10/05 11:33:09;;;;;;;32.60;30.90;;;;;;;17.68;62.57;101262.91;4996892;28;20026;-75
2022/10/05 11:35:35;;;;;;;32.55;30.80;;;;;;;17.70;62.54;101266.19;5005706;28;20034;-75
2022/10/05 11:38:18;;;;;;;33.08;31.35;;;;;;;17.73;62.36;101257.44;5003742;28;20030;-74
2022/10/05 11:41:02;;;;;;;32.25;30.55;;;;;;;17.76;62.22;101253.31;5005738;28;20520;-75
2022/10/05 11:43:46;;;;;;;33.17;30.98;;;;;;;17.79;62.62;101257.41;4999726;28;20092;-74
2022/10/05 11:46:36;;;;;;;35.80;33.70;;;;;;;17.82;62.21;101249.53;5006048;28;20053;-74
2022/10/05 11:49:26;;;;;;;34.40;32.55;;;;;;;17.85;62.38;101239.94;5007697;28;20026;-74
2022/10/05 11:52:02;;;;;;;32.28;30.55;;;;;;;17.88;62.14;101237.47;5005479;28;20045;-74
2022/10/05 11:55:06;;;;;;;31.67;29.90;;;;;;;17.92;62.40;101238.56;4998501;28;20478;-73
2022/10/05 11:57:50;;;;;;;33.95;32.17;;;;;;;17.95;62.46;101234.44;4982402;28;20034;-74
2022/10/05 12:00:30;;;;;;;32.70;30.92;;;;;;;17.98;62.28;101231.13;4984443;28;20022;-75
2022/10/05 12:03:29;;;;;;;33.67;31.88;;;;;;;18.01;62.53;101230.56;4986615;28;20462;-75
2022/10/05 12:06:16;;;;;;;32.55;30.85;;;;;;;18.04;62.00;101223.72;5008509;28;20042;-75
2022/10/05 12:08:41;;;;;;;34.53;32.67;;;;;;;18.07;62.37;101224.00;5003927;28;20085;-74
2022/10/05 12:11:42;;;;;;;34.67;32.88;;;;;;;18.09;62.43;101219.06;5008002;28;20461;-74
2022/10/05 12:14:33;;;;;;;33.55;31.85;;;;;;;18.11;61.99;101225.06;5006092;28;20041;-74
2022/10/05 12:17:21;;;;;;;36.85;34.47;;;;;;;18.15;62.15;101222.59;5009190;28;20029;-74
2022/10/05 12:19:49;;;;;;;37.03;34.75;;;;;;;18.17;62.40;101220.41;5005900;28;20756;-74
2022/10/05 12:22:34;;;;;;;36.78;34.90;;;;;;;18.20;62.20;101216.28;5003974;28;20041;-74